Airfield :
LOGIN :

Register | Disclaimer

   EN    FR    IT 

 










Legend :    VFR   Marginal VFR   IFR   Intensive IFR   Very Intensive IFR
Visi :
Ceiling :
>= 8 km
>= 3000ft
5 to 8 km
1000 to 3000 ft
1500m to 5 km
500 to 1000 ft
800 to 1500m
200 to 500 ft
< 800m
< 200 ft
Symbols :   Thunderstorms  Fog  Heavy snow  Heavy precipitations  Wind > 20 kt
SIGMETs :     Misc.  Thunderstorms  Icing  Turbulence  Mountain Waves  Volcanic Ashes






- Airport Elevation : 121 ft
- IATA code : HUY


EGNJ - Humberside

CURRENT METAR :
  • 102320Z AUTO 23014KT 9999 NCD 06/03 Q1002

EXPIRED METARs :
  • 102250Z AUTO 24015KT 9999 NCD 07/04 Q1001
  • 102220Z AUTO 24015KT 9999 NCD 07/04 Q1001
  • 102150Z 23014KT 9999 FEW018 SCT035 07/04 Q1000
  • 102120Z 24015KT 9999 SCT018 SCT035 08/05 Q1000
  • 102050Z 26016KT 9999 -RA SCT018 SCT035 08/06 Q0999

TAF TAF EGNJ
Valid from the 11 at 00:00 until the 11 at 09:00 UTC


102254Z 1100/1109 23012KT 9999 FEW030
ATIS : +44 1652 682 020



MET'MAP, your aeronautical weather chart ! - Copyright ORBIFLY December 2007 - Disclaimer

ORBIFLY MET'MAP TEAM :

Programming & Development : Alexandra Zaïnal
Concept & original design : Baudouin d'Aumeries
Assistance for programming : Marc-Olivier Méhu
Technical & hardware support : Manuel Goepfert

Contact : metmap@orbifly.com




SOURCES & CREDITS :

   NOAA